sensor_id;sensor_type;location;lat;lon;timestamp;P1;durP1;ratioP1;P2;durP2;ratioP2
13368;SDS011;6753;52.520;13.450;2024-01-11T00:00:06;266.00;;;79.38;;
13368;SDS011;6753;52.520;13.450;2024-01-11T00:00:18;257.35;;;77.72;;
13368;SDS011;6753;52.520;13.450;2024-01-11T00:00:29;256.25;;;77.30;;
13368;SDS011;6753;52.520;13.450;2024-01-11T00:00:40;251.10;;;77.28;;
13368;SDS011;6753;52.520;13.450;2024-01-11T00:00:51;248.75;;;75.22;;
13368;SDS011;6753;52.520;13.450;2024-01-11T00:01:01;244.53;;;73.60;;
13368;SDS011;6753;52.520;13.450;2024-01-11T00:01:12;239.48;;;72.25;;
13368;SDS011;6753;52.520;13.450;2024-01-11T00:01:23;241.98;;;71.95;;
13368;SDS011;6753;52.520;13.450;2024-01-11T00:01:34;241.63;;;70.80;;
13368;SDS011;6753;52.520;13.450;2024-01-11T00:01:45;236.77;;;70.23;;
13368;SDS011;6753;52.520;13.450;2024-01-11T00:01:57;230.23;;;69.70;;
13368;SDS011;6753;52.520;13.450;2024-01-11T00:02:08;223.57;;;68.88;;
13368;SDS011;6753;52.520;13.450;2024-01-11T00:02:19;217.05;;;67.10;;
13368;SDS011;6753;52.520;13.450;2024-01-11T00:02:30;214.88;;;66.65;;
13368;SDS011;6753;52.520;13.450;2024-01-11T00:02:41;210.00;;;66.67;;
13368;SDS011;6753;52.520;13.450;2024-01-11T00:02:51;216.70;;;66.30;;
13368;SDS011;6753;52.520;13.450;2024-01-11T00:03:02;222.73;;;67.45;;
13368;SDS011;6753;52.520;13.450;2024-01-11T00:03:14;227.65;;;68.55;;
13368;SDS011;6753;52.520;13.450;2024-01-11T00:03:25;228.57;;;67.95;;
13368;SDS011;6753;52.520;13.450;2024-01-11T00:03:37;226.53;;;66.23;;
13368;SDS011;6753;52.520;13.450;2024-01-11T00:03:49;217.57;;;65.47;;
13368;SDS011;6753;52.520;13.450;2024-01-11T00:03:59;213.35;;;63.28;;
13368;SDS011;6753;52.520;13.450;2024-01-11T00:04:10;223.48;;;66.32;;
13368;SDS011;6753;52.520;13.450;2024-01-11T00:04:21;226.48;;;66.82;;
13368;SDS011;6753;52.520;13.450;2024-01-11T00:04:32;224.37;;;66.43;;
13368;SDS011;6753;52.520;13.450;2024-01-11T00:04:43;230.52;;;66.63;;
13368;SDS011;6753;52.520;13.450;2024-01-11T00:04:54;232.98;;;66.70;;
13368;SDS011;6753;52.520;13.450;2024-01-11T00:05:05;231.75;;;66.97;;
13368;SDS011;6753;52.520;13.450;2024-01-11T00:05:16;218.13;;;63.03;;
13368;SDS011;6753;52.520;13.450;2024-01-11T00:05:27;217.40;;;62.80;;
13368;SDS011;6753;52.520;13.450;2024-01-11T00:05:42;207.77;;;62.45;;
13368;SDS011;6753;52.520;13.450;2024-01-11T00:05:53;210.65;;;64.57;;
13368;SDS011;6753;52.520;13.450;2024-01-11T00:06:04;204.85;;;63.55;;
13368;SDS011;6753;52.520;13.450;2024-01-11T00:06:15;205.60;;;63.70;;
13368;SDS011;6753;52.520;13.450;2024-01-11T00:06:26;204.88;;;63.55;;
13368;SDS011;6753;52.520;13.450;2024-01-11T00:06:39;209.75;;;62.97;;
13368;SDS011;6753;52.520;13.450;2024-01-11T00:06:51;198.77;;;59.50;;
13368;SDS011;6753;52.520;13.450;2024-01-11T00:07:02;195.68;;;58.03;;
13368;SDS011;6753;52.520;13.450;2024-01-11T00:07:13;194.82;;;57.80;;
13368;SDS011;6753;52.520;13.450;2024-01-11T00:07:25;193.43;;;57.40;;
13368;SDS011;6753;52.520;13.450;2024-01-11T00:07:35;193.90;;;57.47;;
13368;SDS011;6753;52.520;13.450;2024-01-11T00:07:46;193.85;;;57.25;;
13368;SDS011;6753;52.520;13.450;2024-01-11T00:07:58;200.30;;;57.55;;
13368;SDS011;6753;52.520;13.450;2024-01-11T00:08:10;205.60;;;58.45;;
13368;SDS011;6753;52.520;13.450;2024-01-11T00:08:21;198.40;;;57.92;;
13368;SDS011;6753;52.520;13.450;2024-01-11T00:08:32;194.07;;;57.22;;
13368;SDS011;6753;52.520;13.450;2024-01-11T00:08:42;196.10;;;58.00;;
13368;SDS011;6753;52.520;13.450;2024-01-11T00:08:53;194.75;;;58.33;;
13368;SDS011;6753;52.520;13.450;2024-01-11T00:09:04;195.07;;;58.60;;
13368;SDS011;6753;52.520;13.450;2024-01-11T00:09:15;200.52;;;58.80;;
13368;SDS011;6753;52.520;13.450;2024-01-11T00:09:25;202.60;;;60.23;;
13368;SDS011;6753;52.520;13.450;2024-01-11T00:09:38;205.80;;;60.78;;
13368;SDS011;6753;52.520;13.450;2024-01-11T00:09:50;207.07;;;59.78;;
13368;SDS011;6753;52.520;13.450;2024-01-11T00:10:01;200.50;;;58.80;;
13368;SDS011;6753;52.520;13.450;2024-01-11T00:10:13;198.93;;;58.05;;
13368;SDS011;6753;52.520;13.450;2024-01-11T00:10:26;198.10;;;56.60;;
13368;SDS011;6753;52.520;13.450;2024-01-11T00:10:36;195.70;;;56.10;;
13368;SDS011;6753;52.520;13.450;2024-01-11T00:10:47;200.20;;;58.30;;
13368;SDS011;6753;52.520;13.450;2024-01-11T00:10:58;204.43;;;59.50;;
13368;SDS011;6753;52.520;13.450;2024-01-11T00:11:09;201.27;;;59.28;;
13368;SDS011;6753;52.520;13.450;2024-01-11T00:11:20;195.07;;;58.47;;
13368;SDS011;6753;52.520;13.450;2024-01-11T00:11:31;197.40;;;58.70;;
13368;SDS011;6753;52.520;13.450;2024-01-11T00:11:42;186.07;;;56.63;;
13368;SDS011;6753;52.520;13.450;2024-01-11T00:11:53;181.20;;;55.47;;
13368;SDS011;6753;52.520;13.450;2024-01-11T00:12:04;178.53;;;55.43;;
13368;SDS011;6753;52.520;13.450;2024-01-11T00:12:16;180.25;;;55.95;;
13368;SDS011;6753;52.520;13.450;2024-01-11T00:12:26;184.18;;;55.97;;
13368;SDS011;6753;52.520;13.450;2024-01-11T00:12:37;181.57;;;55.65;;
13368;SDS011;6753;52.520;13.450;2024-01-11T00:12:48;183.63;;;56.60;;
13368;SDS011;6753;52.520;13.450;2024-01-11T00:12:59;184.88;;;57.42;;
13368;SDS011;6753;52.520;13.450;2024-01-11T00:13:09;189.90;;;58.90;;
13368;SDS011;6753;52.520;13.450;2024-01-11T00:13:20;202.50;;;62.90;;
13368;SDS011;6753;52.520;13.450;2024-01-11T00:13:32;208.15;;;64.30;;
13368;SDS011;6753;52.520;13.450;2024-01-11T00:13:43;211.38;;;65.43;;
13368;SDS011;6753;52.520;13.450;2024-01-11T00:13:53;217.68;;;65.68;;
13368;SDS011;6753;52.520;13.450;2024-01-11T00:14:04;215.40;;;65.30;;
13368;SDS011;6753;52.520;13.450;2024-01-11T00:14:15;207.33;;;63.07;;
13368;SDS011;6753;52.520;13.450;2024-01-11T00:14:26;189.27;;;60.45;;
13368;SDS011;6753;52.520;13.450;2024-01-11T00:14:36;188.43;;;60.05;;
13368;SDS011;6753;52.520;13.450;2024-01-11T00:14:47;190.00;;;59.63;;
13368;SDS011;6753;52.520;13.450;2024-01-11T00:14:58;188.15;;;59.20;;
13368;SDS011;6753;52.520;13.450;2024-01-11T00:15:10;189.25;;;58.00;;
13368;SDS011;6753;52.520;13.450;2024-01-11T00:15:20;189.57;;;57.20;;
13368;SDS011;6753;52.520;13.450;2024-01-11T00:15:31;189.90;;;57.30;;
13368;SDS011;6753;52.520;13.450;2024-01-11T00:15:42;180.38;;;55.55;;
13368;SDS011;6753;52.520;13.450;2024-01-11T00:15:53;176.52;;;55.35;;
13368;SDS011;6753;52.520;13.450;2024-01-11T00:16:04;175.65;;;55.00;;
13368;SDS011;6753;52.520;13.450;2024-01-11T00:16:15;173.18;;;55.15;;
13368;SDS011;6753;52.520;13.450;2024-01-11T00:16:25;171.52;;;54.08;;
13368;SDS011;6753;52.520;13.450;2024-01-11T00:16:36;169.77;;;53.40;;
13368;SDS011;6753;52.520;13.450;2024-01-11T00:16:47;173.05;;;52.70;;
13368;SDS011;6753;52.520;13.450;2024-01-11T00:16:59;173.65;;;51.63;;
13368;SDS011;6753;52.520;13.450;2024-01-11T00:17:09;176.83;;;51.63;;
13368;SDS011;6753;52.520;13.450;2024-01-11T00:17:20;171.73;;;50.53;;
13368;SDS011;6753;52.520;13.450;2024-01-11T00:17:31;174.88;;;50.90;;
13368;SDS011;6753;52.520;13.450;2024-01-11T00:17:41;174.87;;;50.57;;
13368;SDS011;6753;52.520;13.450;2024-01-11T00:17:52;170.75;;;49.92;;
13368;SDS011;6753;52.520;13.450;2024-01-11T00:18:03;161.90;;;48.50;;
13368;SDS011;6753;52.520;13.450;2024-01-11T00:18:14;159.32;;;48.58;;
13368;SDS011;6753;52.520;13.450;2024-01-11T00:18:25;161.55;;;48.92;;
13368;SDS011;6753;52.520;13.450;2024-01-11T00:18:38;156.88;;;48.03;;
13368;SDS011;6753;52.520;13.450;2024-01-11T00:18:49;151.88;;;47.10;;
13368;SDS011;6753;52.520;13.450;2024-01-11T00:19:00;154.97;;;47.00;;
13368;SDS011;6753;52.520;13.450;2024-01-11T00:19:10;153.75;;;46.33;;
13368;SDS011;6753;52.520;13.450;2024-01-11T00:19:21;149.70;;;44.63;;
13368;SDS011;6753;52.520;13.450;2024-01-11T00:19:32;147.63;;;43.40;;
13368;SDS011;6753;52.520;13.450;2024-01-11T00:19:42;150.00;;;43.87;;
13368;SDS011;6753;52.520;13.450;2024-01-11T00:19:53;151.65;;;44.30;;
13368;SDS011;6753;52.520;13.450;2024-01-11T00:20:04;149.05;;;44.22;;
13368;SDS011;6753;52.520;13.450;2024-01-11T00:20:16;144.32;;;43.97;;
13368;SDS011;6753;52.520;13.450;2024-01-11T00:20:28;147.05;;;45.45;;
13368;SDS011;6753;52.520;13.450;2024-01-11T00:20:39;148.97;;;46.10;;
13368;SDS011;6753;52.520;13.450;2024-01-11T00:20:49;143.73;;;45.72;;
13368;SDS011;6753;52.520;13.450;2024-01-11T00:21:01;140.05;;;45.72;;
13368;SDS011;6753;52.520;13.450;2024-01-11T00:21:12;138.13;;;45.78;;
13368;SDS011;6753;52.520;13.450;2024-01-11T00:21:23;136.20;;;45.47;;
13368;SDS011;6753;52.520;13.450;2024-01-11T00:21:34;132.53;;;43.77;;
13368;SDS011;6753;52.520;13.450;2024-01-11T00:21:44;134.02;;;43.63;;
13368;SDS011;6753;52.520;13.450;2024-01-11T00:21:55;140.50;;;43.45;;
13368;SDS011;6753;52.520;13.450;2024-01-11T00:22:06;143.43;;;44.17;;
13368;SDS011;6753;52.520;13.450;2024-01-11T00:22:18;143.13;;;43.42;;
13368;SDS011;6753;52.520;13.450;2024-01-11T00:22:29;148.68;;;44.47;;
13368;SDS011;6753;52.520;13.450;2024-01-11T00:22:39;145.73;;;44.85;;
13368;SDS011;6753;52.520;13.450;2024-01-11T00:22:50;142.50;;;44.23;;
13368;SDS011;6753;52.520;13.450;2024-01-11T00:23:01;136.80;;;43.65;;
13368;SDS011;6753;52.520;13.450;2024-01-11T00:23:12;140.43;;;44.03;;
13368;SDS011;6753;52.520;13.450;2024-01-11T00:23:22;137.07;;;42.88;;
13368;SDS011;6753;52.520;13.450;2024-01-11T00:23:33;131.73;;;41.50;;
13368;SDS011;6753;52.520;13.450;2024-01-11T00:23:44;136.57;;;41.58;;
13368;SDS011;6753;52.520;13.450;2024-01-11T00:23:55;139.73;;;42.40;;
13368;SDS011;6753;52.520;13.450;2024-01-11T00:24:06;138.93;;;41.47;;
13368;SDS011;6753;52.520;13.450;2024-01-11T00:24:17;137.37;;;41.43;;
13368;SDS011;6753;52.520;13.450;2024-01-11T00:24:28;140.82;;;42.13;;
13368;SDS011;6753;52.520;13.450;2024-01-11T00:24:39;136.65;;;41.72;;
13368;SDS011;6753;52.520;13.450;2024-01-11T00:24:50;131.60;;;40.78;;
13368;SDS011;6753;52.520;13.450;2024-01-11T00:25:01;125.90;;;39.97;;
13368;SDS011;6753;52.520;13.450;2024-01-11T00:25:11;123.82;;;39.78;;
13368;SDS011;6753;52.520;13.450;2024-01-11T00:25:22;124.90;;;38.75;;
13368;SDS011;6753;52.520;13.450;2024-01-11T00:25:33;129.97;;;39.03;;
13368;SDS011;6753;52.520;13.450;2024-01-11T00:25:45;134.43;;;38.78;;
13368;SDS011;6753;52.520;13.450;2024-01-11T00:25:56;131.70;;;38.97;;
13368;SDS011;6753;52.520;13.450;2024-01-11T00:26:07;134.88;;;39.40;;
13368;SDS011;6753;52.520;13.450;2024-01-11T00:26:18;134.45;;;40.08;;
13368;SDS011;6753;52.520;13.450;2024-01-11T00:26:28;131.83;;;40.37;;
13368;SDS011;6753;52.520;13.450;2024-01-11T00:26:39;126.28;;;40.22;;
13368;SDS011;6753;52.520;13.450;2024-01-11T00:26:51;128.45;;;41.00;;
13368;SDS011;6753;52.520;13.450;2024-01-11T00:27:02;132.73;;;41.50;;
13368;SDS011;6753;52.520;13.450;2024-01-11T00:27:13;134.93;;;41.47;;
13368;SDS011;6753;52.520;13.450;2024-01-11T00:27:24;135.43;;;41.30;;
13368;SDS011;6753;52.520;13.450;2024-01-11T00:27:34;139.33;;;41.37;;
13368;SDS011;6753;52.520;13.450;2024-01-11T00:27:45;141.82;;;41.10;;
13368;SDS011;6753;52.520;13.450;2024-01-11T00:27:56;141.02;;;40.67;;
13368;SDS011;6753;52.520;13.450;2024-01-11T00:28:08;134.80;;;38.95;;
13368;SDS011;6753;52.520;13.450;2024-01-11T00:28:18;128.38;;;37.53;;
13368;SDS011;6753;52.520;13.450;2024-01-11T00:28:29;122.70;;;36.15;;
13368;SDS011;6753;52.520;13.450;2024-01-11T00:28:40;117.05;;;35.78;;
13368;SDS011;6753;52.520;13.450;2024-01-11T00:28:51;114.73;;;35.23;;
13368;SDS011;6753;52.520;13.450;2024-01-11T00:29:01;119.72;;;36.30;;
13368;SDS011;6753;52.520;13.450;2024-01-11T00:29:12;124.10;;;38.13;;
13368;SDS011;6753;52.520;13.450;2024-01-11T00:29:25;124.05;;;39.10;;
13368;SDS011;6753;52.520;13.450;2024-01-11T00:29:36;124.72;;;39.55;;
13368;SDS011;6753;52.520;13.450;2024-01-11T00:29:46;123.80;;;39.15;;
13368;SDS011;6753;52.520;13.450;2024-01-11T00:29:57;118.57;;;38.10;;
13368;SDS011;6753;52.520;13.450;2024-01-11T00:30:08;114.80;;;37.30;;
13368;SDS011;6753;52.520;13.450;2024-01-11T00:30:20;112.20;;;36.17;;
13368;SDS011;6753;52.520;13.450;2024-01-11T00:30:30;110.43;;;35.00;;
13368;SDS011;6753;52.520;13.450;2024-01-11T00:30:41;108.05;;;34.58;;
13368;SDS011;6753;52.520;13.450;2024-01-11T00:30:52;107.70;;;35.00;;
13368;SDS011;6753;52.520;13.450;2024-01-11T00:31:03;108.40;;;36.07;;
13368;SDS011;6753;52.520;13.450;2024-01-11T00:31:14;109.78;;;35.83;;
13368;SDS011;6753;52.520;13.450;2024-01-11T00:31:25;111.72;;;35.88;;
13368;SDS011;6753;52.520;13.450;2024-01-11T00:31:37;116.03;;;36.65;;
13368;SDS011;6753;52.520;13.450;2024-01-11T00:31:48;118.15;;;37.30;;
13368;SDS011;6753;52.520;13.450;2024-01-11T00:31:59;120.57;;;36.77;;
13368;SDS011;6753;52.520;13.450;2024-01-11T00:32:10;123.47;;;36.92;;
13368;SDS011;6753;52.520;13.450;2024-01-11T00:32:22;121.68;;;36.97;;
13368;SDS011;6753;52.520;13.450;2024-01-11T00:32:32;122.00;;;37.03;;
13368;SDS011;6753;52.520;13.450;2024-01-11T00:32:43;120.93;;;37.20;;
13368;SDS011;6753;52.520;13.450;2024-01-11T00:32:54;123.63;;;36.95;;
13368;SDS011;6753;52.520;13.450;2024-01-11T00:33:05;118.03;;;35.97;;
13368;SDS011;6753;52.520;13.450;2024-01-11T00:33:16;118.72;;;36.70;;
13368;SDS011;6753;52.520;13.450;2024-01-11T00:33:27;119.55;;;37.35;;
13368;SDS011;6753;52.520;13.450;2024-01-11T00:33:39;124.20;;;38.30;;
13368;SDS011;6753;52.520;13.450;2024-01-11T00:33:50;124.03;;;39.05;;
13368;SDS011;6753;52.520;13.450;2024-01-11T00:34:01;128.52;;;40.53;;
13368;SDS011;6753;52.520;13.450;2024-01-11T00:34:13;132.63;;;41.75;;
13368;SDS011;6753;52.520;13.450;2024-01-11T00:34:23;133.20;;;41.70;;
13368;SDS011;6753;52.520;13.450;2024-01-11T00:34:34;128.48;;;40.83;;
13368;SDS011;6753;52.520;13.450;2024-01-11T00:34:46;131.73;;;40.85;;
13368;SDS011;6753;52.520;13.450;2024-01-11T00:34:56;126.73;;;39.77;;
13368;SDS011;6753;52.520;13.450;2024-01-11T00:35:07;126.60;;;39.85;;
13368;SDS011;6753;52.520;13.450;2024-01-11T00:35:18;123.85;;;39.58;;
13368;SDS011;6753;52.520;13.450;2024-01-11T00:35:29;129.10;;;40.70;;
13368;SDS011;6753;52.520;13.450;2024-01-11T00:35:40;128.20;;;40.30;;
13368;SDS011;6753;52.520;13.450;2024-01-11T00:35:51;129.77;;;41.92;;
13368;SDS011;6753;52.520;13.450;2024-01-11T00:36:03;135.43;;;43.22;;
13368;SDS011;6753;52.520;13.450;2024-01-11T00:36:17;136.35;;;43.05;;
13368;SDS011;6753;52.520;13.450;2024-01-11T00:36:28;139.68;;;45.63;;
13368;SDS011;6753;52.520;13.450;2024-01-11T00:36:39;146.90;;;47.90;;
13368;SDS011;6753;52.520;13.450;2024-01-11T00:36:50;147.43;;;48.30;;
13368;SDS011;6753;52.520;13.450;2024-01-11T00:37:01;146.90;;;47.73;;
13368;SDS011;6753;52.520;13.450;2024-01-11T00:37:11;152.98;;;48.70;;
13368;SDS011;6753;52.520;13.450;2024-01-11T00:37:22;148.43;;;46.95;;
13368;SDS011;6753;52.520;13.450;2024-01-11T00:37:34;141.88;;;44.15;;
13368;SDS011;6753;52.520;13.450;2024-01-11T00:37:45;134.85;;;42.53;;
13368;SDS011;6753;52.520;13.450;2024-01-11T00:37:56;132.25;;;41.67;;
13368;SDS011;6753;52.520;13.450;2024-01-11T00:38:07;129.10;;;41.93;;
13368;SDS011;6753;52.520;13.450;2024-01-11T00:38:17;128.52;;;41.67;;
13368;SDS011;6753;52.520;13.450;2024-01-11T00:38:28;131.93;;;42.45;;
13368;SDS011;6753;52.520;13.450;2024-01-11T00:38:39;134.83;;;42.53;;
13368;SDS011;6753;52.520;13.450;2024-01-11T00:38:50;134.48;;;41.78;;
13368;SDS011;6753;52.520;13.450;2024-01-11T00:39:00;134.93;;;41.17;;
13368;SDS011;6753;52.520;13.450;2024-01-11T00:39:11;132.57;;;40.45;;
13368;SDS011;6753;52.520;13.450;2024-01-11T00:39:23;126.75;;;39.65;;
13368;SDS011;6753;52.520;13.450;2024-01-11T00:39:34;125.22;;;38.65;;
13368;SDS011;6753;52.520;13.450;2024-01-11T00:39:45;121.85;;;38.47;;
13368;SDS011;6753;52.520;13.450;2024-01-11T00:39:56;120.25;;;38.45;;
13368;SDS011;6753;52.520;13.450;2024-01-11T00:40:07;117.90;;;37.72;;
13368;SDS011;6753;52.520;13.450;2024-01-11T00:40:18;112.97;;;36.53;;
13368;SDS011;6753;52.520;13.450;2024-01-11T00:40:29;113.97;;;36.53;;
13368;SDS011;6753;52.520;13.450;2024-01-11T00:40:40;110.47;;;35.95;;
13368;SDS011;6753;52.520;13.450;2024-01-11T00:40:50;110.65;;;35.80;;
13368;SDS011;6753;52.520;13.450;2024-01-11T00:41:01;110.33;;;36.20;;
13368;SDS011;6753;52.520;13.450;2024-01-11T00:41:12;112.07;;;36.55;;
13368;SDS011;6753;52.520;13.450;2024-01-11T00:41:23;116.30;;;37.65;;
13368;SDS011;6753;52.520;13.450;2024-01-11T00:41:36;118.43;;;38.42;;
13368;SDS011;6753;52.520;13.450;2024-01-11T00:41:46;121.10;;;38.90;;
13368;SDS011;6753;52.520;13.450;2024-01-11T00:41:57;123.43;;;39.38;;
13368;SDS011;6753;52.520;13.450;2024-01-11T00:42:08;121.82;;;38.78;;
13368;SDS011;6753;52.520;13.450;2024-01-11T00:42:19;119.97;;;38.45;;
13368;SDS011;6753;52.520;13.450;2024-01-11T00:42:29;122.70;;;38.77;;
13368;SDS011;6753;52.520;13.450;2024-01-11T00:42:40;120.07;;;38.08;;
13368;SDS011;6753;52.520;13.450;2024-01-11T00:42:54;115.47;;;37.25;;
13368;SDS011;6753;52.520;13.450;2024-01-11T00:43:05;112.32;;;36.78;;
13368;SDS011;6753;52.520;13.450;2024-01-11T00:43:16;113.28;;;36.60;;
13368;SDS011;6753;52.520;13.450;2024-01-11T00:43:27;109.40;;;35.85;;
13368;SDS011;6753;52.520;13.450;2024-01-11T00:43:38;107.55;;;35.17;;
13368;SDS011;6753;52.520;13.450;2024-01-11T00:43:48;105.93;;;34.63;;
13368;SDS011;6753;52.520;13.450;2024-01-11T00:43:59;106.20;;;35.03;;
13368;SDS011;6753;52.520;13.450;2024-01-11T00:44:10;112.93;;;35.97;;
13368;SDS011;6753;52.520;13.450;2024-01-11T00:44:21;111.93;;;36.67;;
13368;SDS011;6753;52.520;13.450;2024-01-11T00:44:32;120.23;;;37.30;;
13368;SDS011;6753;52.520;13.450;2024-01-11T00:44:42;126.57;;;39.42;;
13368;SDS011;6753;52.520;13.450;2024-01-11T00:44:55;130.35;;;40.58;;
13368;SDS011;6753;52.520;13.450;2024-01-11T00:45:06;132.65;;;42.55;;
13368;SDS011;6753;52.520;13.450;2024-01-11T00:45:17;141.63;;;45.50;;
13368;SDS011;6753;52.520;13.450;2024-01-11T00:45:29;142.05;;;46.58;;
13368;SDS011;6753;52.520;13.450;2024-01-11T00:45:40;143.53;;;47.17;;
13368;SDS011;6753;52.520;13.450;2024-01-11T00:45:50;143.90;;;47.55;;
13368;SDS011;6753;52.520;13.450;2024-01-11T00:46:01;148.70;;;48.75;;
13368;SDS011;6753;52.520;13.450;2024-01-11T00:46:12;150.32;;;48.45;;
13368;SDS011;6753;52.520;13.450;2024-01-11T00:46:23;152.73;;;49.33;;
13368;SDS011;6753;52.520;13.450;2024-01-11T00:46:34;156.88;;;51.05;;
13368;SDS011;6753;52.520;13.450;2024-01-11T00:46:44;166.85;;;53.67;;
13368;SDS011;6753;52.520;13.450;2024-01-11T00:46:55;170.77;;;55.30;;
13368;SDS011;6753;52.520;13.450;2024-01-11T00:47:06;173.07;;;56.47;;
13368;SDS011;6753;52.520;13.450;2024-01-11T00:47:18;170.80;;;55.97;;
13368;SDS011;6753;52.520;13.450;2024-01-11T00:47:28;168.27;;;56.10;;
13368;SDS011;6753;52.520;13.450;2024-01-11T00:47:39;171.65;;;57.20;;
13368;SDS011;6753;52.520;13.450;2024-01-11T00:47:50;168.67;;;57.60;;
13368;SDS011;6753;52.520;13.450;2024-01-11T00:48:01;174.38;;;58.78;;
13368;SDS011;6753;52.520;13.450;2024-01-11T00:48:12;181.18;;;61.20;;
13368;SDS011;6753;52.520;13.450;2024-01-11T00:48:23;184.50;;;62.57;;
13368;SDS011;6753;52.520;13.450;2024-01-11T00:48:34;189.98;;;63.50;;
13368;SDS011;6753;52.520;13.450;2024-01-11T00:48:46;192.23;;;63.78;;
13368;SDS011;6753;52.520;13.450;2024-01-11T00:48:57;194.48;;;63.97;;
13368;SDS011;6753;52.520;13.450;2024-01-11T00:49:07;192.73;;;63.55;;
13368;SDS011;6753;52.520;13.450;2024-01-11T00:49:18;198.03;;;65.20;;
13368;SDS011;6753;52.520;13.450;2024-01-11T00:49:30;205.23;;;67.30;;
13368;SDS011;6753;52.520;13.450;2024-01-11T00:49:40;206.50;;;68.25;;
13368;SDS011;6753;52.520;13.450;2024-01-11T00:49:52;206.70;;;69.75;;
13368;SDS011;6753;52.520;13.450;2024-01-11T00:50:04;211.70;;;71.32;;
13368;SDS011;6753;52.520;13.450;2024-01-11T00:50:15;217.18;;;73.75;;
13368;SDS011;6753;52.520;13.450;2024-01-11T00:50:26;216.80;;;73.30;;
13368;SDS011;6753;52.520;13.450;2024-01-11T00:50:37;222.55;;;75.43;;
13368;SDS011;6753;52.520;13.450;2024-01-11T00:50:48;227.52;;;76.70;;
13368;SDS011;6753;52.520;13.450;2024-01-11T00:50:58;235.23;;;80.57;;
13368;SDS011;6753;52.520;13.450;2024-01-11T00:51:09;242.80;;;82.07;;
13368;SDS011;6753;52.520;13.450;2024-01-11T00:51:21;246.77;;;83.13;;
13368;SDS011;6753;52.520;13.450;2024-01-11T00:51:32;247.88;;;84.68;;
13368;SDS011;6753;52.520;13.450;2024-01-11T00:51:42;243.00;;;83.13;;
13368;SDS011;6753;52.520;13.450;2024-01-11T00:51:53;235.05;;;80.80;;
13368;SDS011;6753;52.520;13.450;2024-01-11T00:52:04;229.55;;;78.45;;
13368;SDS011;6753;52.520;13.450;2024-01-11T00:52:15;224.25;;;77.50;;
13368;SDS011;6753;52.520;13.450;2024-01-11T00:52:26;222.65;;;75.88;;
13368;SDS011;6753;52.520;13.450;2024-01-11T00:52:37;221.68;;;73.72;;
13368;SDS011;6753;52.520;13.450;2024-01-11T00:52:48;227.05;;;74.55;;
13368;SDS011;6753;52.520;13.450;2024-01-11T00:53:00;225.20;;;73.82;;
13368;SDS011;6753;52.520;13.450;2024-01-11T00:53:11;224.02;;;73.45;;
13368;SDS011;6753;52.520;13.450;2024-01-11T00:53:24;235.85;;;77.65;;
13368;SDS011;6753;52.520;13.450;2024-01-11T00:53:40;229.95;;;77.00;;
13368;SDS011;6753;52.520;13.450;2024-01-11T00:53:50;230.27;;;78.38;;
13368;SDS011;6753;52.520;13.450;2024-01-11T00:54:01;234.27;;;78.47;;
13368;SDS011;6753;52.520;13.450;2024-01-11T00:54:12;228.60;;;76.65;;
13368;SDS011;6753;52.520;13.450;2024-01-11T00:54:23;216.60;;;71.60;;
13368;SDS011;6753;52.520;13.450;2024-01-11T00:54:35;222.98;;;73.53;;
13368;SDS011;6753;52.520;13.450;2024-01-11T00:54:46;227.73;;;74.68;;
13368;SDS011;6753;52.520;13.450;2024-01-11T00:54:57;224.35;;;73.82;;
13368;SDS011;6753;52.520;13.450;2024-01-11T00:55:08;220.02;;;74.03;;
13368;SDS011;6753;52.520;13.450;2024-01-11T00:55:19;218.60;;;73.00;;
13368;SDS011;6753;52.520;13.450;2024-01-11T00:55:29;217.70;;;72.40;;
13368;SDS011;6753;52.520;13.450;2024-01-11T00:55:40;210.75;;;70.07;;
13368;SDS011;6753;52.520;13.450;2024-01-11T00:55:53;207.23;;;68.85;;
13368;SDS011;6753;52.520;13.450;2024-01-11T00:56:04;210.10;;;69.33;;
13368;SDS011;6753;52.520;13.450;2024-01-11T00:56:15;210.07;;;69.90;;
13368;SDS011;6753;52.520;13.450;2024-01-11T00:56:27;198.20;;;67.63;;
13368;SDS011;6753;52.520;13.450;2024-01-11T00:56:38;194.90;;;66.10;;
13368;SDS011;6753;52.520;13.450;2024-01-11T00:56:49;193.27;;;65.82;;
13368;SDS011;6753;52.520;13.450;2024-01-11T00:57:00;190.35;;;64.47;;
13368;SDS011;6753;52.520;13.450;2024-01-11T00:57:10;188.23;;;63.55;;
13368;SDS011;6753;52.520;13.450;2024-01-11T00:57:21;197.77;;;65.93;;
13368;SDS011;6753;52.520;13.450;2024-01-11T00:57:32;204.23;;;66.95;;
13368;SDS011;6753;52.520;13.450;2024-01-11T00:57:43;204.18;;;67.55;;
13368;SDS011;6753;52.520;13.450;2024-01-11T00:57:53;202.90;;;67.65;;
13368;SDS011;6753;52.520;13.450;2024-01-11T00:58:04;206.27;;;67.70;;
13368;SDS011;6753;52.520;13.450;2024-01-11T00:58:15;206.48;;;67.00;;
13368;SDS011;6753;52.520;13.450;2024-01-11T00:58:27;195.07;;;65.05;;
13368;SDS011;6753;52.520;13.450;2024-01-11T00:58:38;194.63;;;66.05;;
13368;SDS011;6753;52.520;13.450;2024-01-11T00:58:49;197.20;;;65.60;;
13368;SDS011;6753;52.520;13.450;2024-01-11T00:59:00;196.30;;;64.83;;
13368;SDS011;6753;52.520;13.450;2024-01-11T00:59:10;196.80;;;64.45;;
13368;SDS011;6753;52.520;13.450;2024-01-11T00:59:21;195.40;;;63.78;;
13368;SDS011;6753;52.520;13.450;2024-01-11T00:59:32;195.35;;;62.38;;
13368;SDS011;6753;52.520;13.450;2024-01-11T00:59:43;194.32;;;61.10;;
13368;SDS011;6753;52.520;13.450;2024-01-11T00:59:54;189.27;;;61.30;;
13368;SDS011;6753;52.520;13.450;2024-01-11T01:00:06;181.20;;;60.65;;
13368;SDS011;6753;52.520;13.450;2024-01-11T01:00:18;183.75;;;61.28;;
13368;SDS011;6753;52.520;13.450;2024-01-11T01:00:28;192.10;;;64.47;;
13368;SDS011;6753;52.520;13.450;2024-01-11T01:00:39;190.48;;;64.53;;
13368;SDS011;6753;52.520;13.450;2024-01-11T01:00:50;197.77;;;65.72;;
13368;SDS011;6753;52.520;13.450;2024-01-11T01:01:02;198.75;;;64.75;;
13368;SDS011;6753;52.520;13.450;2024-01-11T01:01:18;199.45;;;65.35;;
13368;SDS011;6753;52.520;13.450;2024-01-11T01:01:30;190.68;;;62.90;;
13368;SDS011;6753;52.520;13.450;2024-01-11T01:01:46;193.45;;;63.45;;
13368;SDS011;6753;52.520;13.450;2024-01-11T01:01:57;190.75;;;65.03;;
13368;SDS011;6753;52.520;13.450;2024-01-11T01:02:08;193.13;;;66.28;;
13368;SDS011;6753;52.520;13.450;2024-01-11T01:02:19;194.93;;;68.00;;
13368;SDS011;6753;52.520;13.450;2024-01-11T01:02:30;203.57;;;70.05;;
13368;SDS011;6753;52.520;13.450;2024-01-11T01:02:41;206.00;;;71.37;;
13368;SDS011;6753;52.520;13.450;2024-01-11T01:02:52;204.13;;;71.68;;
13368;SDS011;6753;52.520;13.450;2024-01-11T01:03:04;208.20;;;73.32;;
13368;SDS011;6753;52.520;13.450;2024-01-11T01:03:14;208.18;;;73.55;;
13368;SDS011;6753;52.520;13.450;2024-01-11T01:03:26;203.43;;;71.57;;
13368;SDS011;6753;52.520;13.450;2024-01-11T01:03:37;196.90;;;69.93;;
13368;SDS011;6753;52.520;13.450;2024-01-11T01:03:49;199.65;;;69.53;;
13368;SDS011;6753;52.520;13.450;2024-01-11T01:04:00;202.73;;;68.18;;